Terminal Aerodrome Forecast
Issued by NWS Sterling, VA

Current Version | Previous Version | Graphics & Text | Print | Product List | Glossary On
Versions: 1 2 3 4 5 6 7 8 9 10 11 12 13 14 15 16
794
FTUS41 KLWX 011739
TAFMRB
TAF
KMRB 011739Z 0118/0218 27016G24KT P6SM BKN050
     FM012300 27010KT P6SM SCT045
     FM021500 28011KT P6SM BKN200=

USA.gov is the U.S. government's official web portal to all federal, state and local government web resources and services.